Time;durP1;ratioP1;P1;durP2;ratioP2;P2;SDS_P1;SDS_P2;PMS_P1;PMS_P2;Temp;Humidity;BMP_temperature;BMP_pressure;BME280_temperature;BME280_humidity;BME280_pressure;Samples;Min_cycle;Max_cycle;Signal;HPM_P1;HPM_P2
2024/01/21 00:01:16;;;;;;;18.30;9.93;;;-2.80;99.90;;;;;;5072636;28;20872;-72
2024/01/21 00:03:43;;;;;;;17.53;10.13;;;-2.80;99.90;;;;;;5066311;28;20572;-72
2024/01/21 00:06:08;;;;;;;17.20;8.60;;;-2.70;99.90;;;;;;5057700;28;20419;-73
2024/01/21 00:08:34;;;;;;;18.30;10.07;;;-2.70;99.90;;;;;;5069327;28;20823;-73
2024/01/21 00:11:00;;;;;;;14.33;8.70;;;-2.70;99.90;;;;;;5057840;28;20242;-73
2024/01/21 00:13:25;;;;;;;17.73;10.20;;;-2.70;99.90;;;;;;5063180;28;20265;-71
2024/01/21 00:15:51;;;;;;;17.17;9.30;;;-2.70;99.90;;;;;;5082088;28;20217;-70
2024/01/21 00:18:17;;;;;;;20.13;10.60;;;-2.70;99.90;;;;;;5076035;28;20193;-71
2024/01/21 00:20:42;;;;;;;19.47;11.03;;;-2.70;99.90;;;;;;5053279;28;20190;-74
2024/01/21 00:23:08;;;;;;;18.87;10.37;;;-2.60;99.90;;;;;;5063400;28;20194;-71
2024/01/21 00:25:34;;;;;;;22.03;11.93;;;-2.60;99.90;;;;;;5061718;28;20276;-72
2024/01/21 00:28:00;;;;;;;17.70;9.97;;;-2.60;99.90;;;;;;5061219;28;20257;-70
2024/01/21 00:30:26;;;;;;;20.47;10.53;;;-2.40;99.90;;;;;;5057861;28;20443;-71
2024/01/21 00:32:52;;;;;;;21.90;11.03;;;-2.40;99.90;;;;;;5051876;28;20432;-69
2024/01/21 00:35:18;;;;;;;19.10;10.50;;;-2.30;99.90;;;;;;5064610;28;20420;-70
2024/01/21 00:37:43;;;;;;;22.23;11.20;;;-2.30;99.90;;;;;;5062506;28;20193;-70
2024/01/21 00:40:09;;;;;;;22.10;11.97;;;-2.30;99.90;;;;;;5073956;28;20217;-71
2024/01/21 00:42:35;;;;;;;25.13;12.10;;;-2.20;99.90;;;;;;5074502;28;20228;-72
2024/01/21 00:45:01;;;;;;;22.23;11.47;;;-2.20;99.90;;;;;;5062743;28;20236;-71
2024/01/21 00:47:27;;;;;;;23.37;13.23;;;-2.20;99.90;;;;;;5035126;28;20573;-71
2024/01/21 00:49:53;;;;;;;21.43;12.10;;;-2.20;99.90;;;;;;5057299;28;20428;-72
2024/01/21 00:52:18;;;;;;;21.47;12.23;;;-2.20;99.90;;;;;;5063083;28;20638;-70
2024/01/21 00:54:44;;;;;;;24.10;12.57;;;-2.20;99.90;;;;;;5060222;28;20558;-72
2024/01/21 00:57:10;;;;;;;22.97;12.27;;;-2.20;99.90;;;;;;5066166;28;20302;-70
2024/01/21 00:59:35;;;;;;;28.90;14.40;;;-2.20;99.90;;;;;;5056300;28;20202;-70
2024/01/21 01:02:01;;;;;;;22.03;12.10;;;-2.40;99.90;;;;;;5076573;28;20173;-68
2024/01/21 01:04:27;;;;;;;20.90;11.27;;;-2.30;99.90;;;;;;5070165;28;20205;-71
2024/01/21 01:06:52;;;;;;;24.03;13.97;;;-2.20;99.90;;;;;;5053743;28;20214;-71
2024/01/21 01:09:18;;;;;;;23.70;14.60;;;-2.30;99.90;;;;;;5062998;28;20578;-72
2024/01/21 01:11:43;;;;;;;24.87;13.77;;;-2.30;99.90;;;;;;5054604;28;20174;-71
2024/01/21 01:14:09;;;;;;;22.50;13.00;;;-2.30;99.90;;;;;;5068736;28;20198;-71
2024/01/21 01:16:39;;;;;;;20.07;11.83;;;-2.20;99.90;;;;;;5060977;28;20237;-70
2024/01/21 01:19:05;;;;;;;21.07;13.07;;;-2.30;99.90;;;;;;5063034;28;20518;-71
2024/01/21 01:21:31;;;;;;;27.20;13.07;;;-2.20;99.90;;;;;;5054899;28;20439;-71
2024/01/21 01:23:57;;;;;;;22.63;12.37;;;-2.20;99.90;;;;;;5051757;28;20721;-71
2024/01/21 01:26:23;;;;;;;24.13;14.13;;;-2.20;99.90;;;;;;5045275;28;20210;-71
2024/01/21 01:28:50;;;;;;;23.97;13.87;;;-2.20;99.90;;;;;;5068101;28;20431;-70
2024/01/21 01:31:19;;;;;;;27.60;14.50;;;-2.20;99.90;;;;;;5055759;28;20186;-68
2024/01/21 01:33:46;;;;;;;26.70;13.77;;;-2.20;99.90;;;;;;5057967;28;20429;-70
2024/01/21 01:36:12;;;;;;;22.53;13.00;;;-2.10;99.90;;;;;;5063187;28;20469;-71
2024/01/21 01:38:38;;;;;;;26.23;13.83;;;-2.10;99.90;;;;;;5058432;28;20567;-74
2024/01/21 01:41:04;;;;;;;22.80;13.90;;;-2.00;99.90;;;;;;5069666;28;20490;-70
2024/01/21 01:43:30;;;;;;;22.37;13.30;;;-2.00;99.90;;;;;;5071243;28;20426;-70
2024/01/21 01:45:59;;;;;;;21.43;12.13;;;-2.00;99.90;;;;;;5063931;28;20440;-69
2024/01/21 01:48:25;;;;;;;24.80;13.23;;;-1.90;99.90;;;;;;5074627;28;20488;-69
2024/01/21 01:50:52;;;;;;;21.63;12.87;;;-1.90;99.90;;;;;;5059893;28;20500;-70
2024/01/21 01:53:18;;;;;;;19.20;12.43;;;-1.90;99.90;;;;;;5065107;28;20431;-71
2024/01/21 01:55:44;;;;;;;24.70;13.00;;;-1.90;99.90;;;;;;5065029;28;20500;-70
2024/01/21 01:58:14;;;;;;;23.27;12.90;;;-1.80;99.90;;;;;;5070183;28;20626;-70
2024/01/21 02:00:41;;;;;;;23.73;12.40;;;-1.80;99.90;;;;;;5066138;28;20419;-68
2024/01/21 02:03:08;;;;;;;24.07;13.67;;;-1.80;99.90;;;;;;5069952;28;20431;-68
2024/01/21 02:05:34;;;;;;;22.90;12.13;;;-1.70;99.90;;;;;;5058683;28;20459;-69
2024/01/21 02:07:59;;;;;;;26.93;15.33;;;-1.70;99.90;;;;;;5061457;28;20419;-69
2024/01/21 02:10:27;;;;;;;25.73;12.27;;;-1.70;99.90;;;;;;5064839;28;20408;-72
2024/01/21 02:12:53;;;;;;;22.50;12.43;;;-1.70;99.90;;;;;;5061387;28;20194;-68
2024/01/21 02:15:19;;;;;;;25.40;13.10;;;-1.70;99.90;;;;;;5071445;28;20484;-70
2024/01/21 02:17:45;;;;;;;23.30;13.20;;;-1.70;99.90;;;;;;5069669;28;20780;-70
2024/01/21 02:20:11;;;;;;;21.80;12.20;;;-1.60;99.90;;;;;;5074605;28;20472;-68
2024/01/21 02:22:41;;;;;;;25.27;13.30;;;-1.60;99.90;;;;;;5065178;28;20420;-68
2024/01/21 02:25:08;;;;;;;22.70;14.93;;;-1.50;99.90;;;;;;5064090;28;20253;-70
2024/01/21 02:27:34;;;;;;;23.87;13.17;;;-1.50;99.90;;;;;;5041018;28;20416;-71
2024/01/21 02:30:00;;;;;;;23.07;12.50;;;-1.50;99.90;;;;;;5062067;28;20705;-69
2024/01/21 02:32:26;;;;;;;23.80;13.30;;;-1.50;99.90;;;;;;5072713;28;20496;-70
2024/01/21 02:34:52;;;;;;;20.20;12.50;;;-1.50;99.90;;;;;;5067873;28;20476;-69
2024/01/21 02:37:18;;;;;;;28.00;13.60;;;-1.50;99.90;;;;;;5060254;28;20424;-69
2024/01/21 02:39:44;;;;;;;22.60;13.37;;;-1.40;99.90;;;;;;5067304;28;20536;-69
2024/01/21 02:42:10;;;;;;;22.67;11.53;;;-1.50;99.90;;;;;;5062092;28;20482;-70
2024/01/21 02:44:36;;;;;;;21.17;11.50;;;-1.50;99.90;;;;;;5065083;28;20497;-70
2024/01/21 02:47:01;;;;;;;20.50;11.10;;;-1.50;99.90;;;;;;5064264;28;20513;-69
2024/01/21 02:49:28;;;;;;;23.80;13.20;;;-1.50;99.90;;;;;;5064370;28;20285;-68
2024/01/21 02:51:57;;;;;;;23.17;12.43;;;-1.60;99.90;;;;;;5071521;28;20212;-70
2024/01/21 02:54:24;;;;;;;24.37;13.30;;;-1.60;99.90;;;;;;5075703;28;20441;-70
2024/01/21 02:56:49;;;;;;;22.23;11.60;;;-1.70;99.90;;;;;;5071907;28;20439;-68
2024/01/21 02:59:15;;;;;;;19.33;11.30;;;-1.70;99.90;;;;;;5076833;28;20906;-69
2024/01/21 03:01:41;;;;;;;24.67;13.63;;;-1.60;99.90;;;;;;5073227;28;20427;-69
2024/01/21 03:04:13;;;;;;;19.43;11.23;;;-1.70;99.90;;;;;;5068814;28;20422;-71
2024/01/21 03:06:40;;;;;;;19.83;11.87;;;-1.60;99.90;;;;;;5059976;28;20458;-69
2024/01/21 03:09:06;;;;;;;21.67;12.27;;;-1.70;99.90;;;;;;5065688;28;20424;-69
2024/01/21 03:11:32;;;;;;;16.83;12.03;;;-1.60;99.90;;;;;;5071179;28;20416;-68
2024/01/21 03:13:58;;;;;;;21.53;11.37;;;-1.70;99.90;;;;;;5057314;28;20311;-70
2024/01/21 03:16:24;;;;;;;17.53;11.20;;;-1.60;99.90;;;;;;5064100;28;20467;-71
2024/01/21 03:18:49;;;;;;;17.07;9.90;;;-1.60;99.90;;;;;;5068375;28;20628;-69
2024/01/21 03:21:15;;;;;;;18.43;10.83;;;-1.70;99.90;;;;;;5066327;28;20196;-70
2024/01/21 03:23:41;;;;;;;17.50;10.13;;;-1.60;99.90;;;;;;5072541;28;20174;-70
2024/01/21 03:26:06;;;;;;;18.07;11.03;;;-1.60;99.90;;;;;;5073280;28;20520;-71
2024/01/21 03:28:32;;;;;;;18.00;10.90;;;-1.60;99.90;;;;;;5075727;28;20185;-69
2024/01/21 03:30:58;;;;;;;20.50;12.40;;;-1.50;99.90;;;;;;5082406;28;20191;-70
2024/01/21 03:33:25;;;;;;;19.90;11.43;;;-1.50;99.90;;;;;;5065138;28;20485;-71
2024/01/21 03:35:51;;;;;;;16.57;10.10;;;-1.50;99.90;;;;;;5067232;28;20293;-71
2024/01/21 03:38:17;;;;;;;16.30;9.83;;;-1.50;99.90;;;;;;5077590;28;20506;-69
2024/01/21 03:40:42;;;;;;;17.63;10.77;;;-1.50;99.90;;;;;;5064034;28;20205;-71
2024/01/21 03:43:08;;;;;;;24.13;12.30;;;-1.50;99.90;;;;;;5079330;28;20648;-71
2024/01/21 03:45:34;;;;;;;18.00;11.37;;;-1.50;99.90;;;;;;5066535;28;20208;-69
2024/01/21 03:48:00;;;;;;;17.70;10.77;;;-1.50;99.90;;;;;;5073981;28;20426;-70
2024/01/21 03:50:25;;;;;;;15.57;9.33;;;-1.50;99.90;;;;;;5069415;28;20197;-69
2024/01/21 03:52:52;;;;;;;21.73;11.80;;;-1.50;99.90;;;;;;5076748;28;20193;-69
2024/01/21 03:55:19;;;;;;;16.97;11.03;;;-1.60;99.90;;;;;;5079276;28;20500;-68
2024/01/21 03:57:45;;;;;;;15.63;10.37;;;-1.60;99.90;;;;;;5072311;28;20474;-68
2024/01/21 04:00:12;;;;;;;21.47;12.40;;;-1.60;99.90;;;;;;5080063;28;20477;-70
2024/01/21 04:02:38;;;;;;;14.83;10.23;;;-1.70;99.90;;;;;;5063514;28;20189;-69
2024/01/21 04:05:05;;;;;;;18.27;10.53;;;-1.70;99.90;;;;;;5071470;28;20566;-69
2024/01/21 04:07:31;;;;;;;19.90;10.80;;;-1.70;99.90;;;;;;5070054;28;20411;-69
2024/01/21 04:09:56;;;;;;;19.47;10.70;;;-1.80;99.90;;;;;;5067783;28;20431;-70
2024/01/21 04:12:22;;;;;;;21.43;11.47;;;-1.90;99.90;;;;;;5069735;28;20511;-71
2024/01/21 04:14:48;;;;;;;25.23;11.70;;;-1.80;99.90;;;;;;5074307;28;20202;-70
2024/01/21 04:17:13;;;;;;;22.90;10.33;;;-1.80;99.90;;;;;;5072962;28;20296;-68
2024/01/21 04:19:39;;;;;;;19.00;10.07;;;-1.70;99.90;;;;;;5070956;28;20228;-70
2024/01/21 04:22:05;;;;;;;23.33;12.77;;;-1.70;99.90;;;;;;5068689;28;20281;-67
2024/01/21 04:24:30;;;;;;;19.83;10.57;;;-1.90;99.90;;;;;;5078996;28;20162;-70
2024/01/21 04:26:56;;;;;;;22.97;10.77;;;-1.90;99.90;;;;;;5073038;28;20209;-69
2024/01/21 04:29:22;;;;;;;16.80;10.50;;;-1.90;99.90;;;;;;5081737;28;20193;-68
2024/01/21 04:31:48;;;;;;;21.77;10.10;;;-1.90;99.90;;;;;;5064904;28;20618;-68
2024/01/21 04:34:14;;;;;;;19.80;10.33;;;-1.90;99.90;;;;;;5069186;28;20193;-71
2024/01/21 04:36:39;;;;;;;17.43;10.47;;;-1.90;99.90;;;;;;5071497;28;20443;-69
2024/01/21 04:39:08;;;;;;;17.53;10.40;;;-1.90;99.90;;;;;;5077993;28;20264;-68
2024/01/21 04:41:34;;;;;;;20.77;10.70;;;-1.90;99.90;;;;;;5070021;28;20661;-69
2024/01/21 04:43:59;;;;;;;19.20;11.47;;;-1.90;99.90;;;;;;5071250;28;20424;-69
2024/01/21 04:46:25;;;;;;;21.10;10.10;;;-1.90;99.90;;;;;;5067533;28;20209;-69
2024/01/21 04:48:52;;;;;;;21.47;10.70;;;-1.90;99.90;;;;;;5050190;28;20198;-71
2024/01/21 04:51:18;;;;;;;18.10;10.60;;;-1.80;99.90;;;;;;5065714;28;20189;-69
2024/01/21 04:53:44;;;;;;;19.40;10.77;;;-1.80;99.90;;;;;;5061794;28;20413;-67
2024/01/21 04:56:16;;;;;;;19.10;10.83;;;-1.80;99.90;;;;;;5062165;28;20745;-67
2024/01/21 04:58:42;;;;;;;19.03;9.23;;;-1.70;99.90;;;;;;5069944;28;20458;-69
2024/01/21 05:01:07;;;;;;;18.60;10.53;;;-1.60;99.90;;;;;;5069291;28;20415;-67
2024/01/21 05:03:33;;;;;;;17.63;9.40;;;-1.60;99.90;;;;;;5074803;28;20194;-69
2024/01/21 05:05:59;;;;;;;14.37;8.40;;;-1.60;99.90;;;;;;5072413;28;20285;-69
2024/01/21 05:08:24;;;;;;;17.33;9.67;;;-1.50;99.90;;;;;;5066109;28;20292;-69
2024/01/21 05:10:50;;;;;;;16.90;9.63;;;-1.60;99.90;;;;;;5060727;28;20213;-69
2024/01/21 05:13:16;;;;;;;17.13;9.30;;;-1.50;99.90;;;;;;5071911;28;20194;-70
2024/01/21 05:15:41;;;;;;;20.07;10.30;;;-1.50;99.90;;;;;;5069124;28;20518;-68
2024/01/21 05:18:07;;;;;;;17.13;9.10;;;-1.50;99.90;;;;;;5079147;28;20193;-69
2024/01/21 05:20:33;;;;;;;15.70;9.60;;;-1.50;99.90;;;;;;5067675;28;20278;-68
2024/01/21 05:22:59;;;;;;;17.23;10.17;;;-1.50;99.90;;;;;;5076561;28;20474;-68
2024/01/21 05:25:25;;;;;;;14.43;8.27;;;-1.50;99.90;;;;;;5062798;28;20479;-68
2024/01/21 05:27:50;;;;;;;15.80;8.07;;;-1.60;99.90;;;;;;5067138;28;20444;-69
2024/01/21 05:30:16;;;;;;;16.23;9.03;;;-1.60;99.90;;;;;;5068584;28;20852;-70
2024/01/21 05:32:46;;;;;;;16.40;8.77;;;-1.60;99.90;;;;;;5065820;28;20208;-72
2024/01/21 05:35:12;;;;;;;17.30;10.03;;;-1.70;99.90;;;;;;5062926;28;20200;-68
2024/01/21 05:37:38;;;;;;;19.17;9.90;;;-1.50;99.90;;;;;;5066560;28;20419;-70
2024/01/21 05:40:04;;;;;;;19.50;9.80;;;-1.50;99.90;;;;;;5066743;28;20463;-68
2024/01/21 05:42:30;;;;;;;14.37;8.60;;;-1.60;99.90;;;;;;5062786;28;20221;-70
2024/01/21 05:44:56;;;;;;;19.50;10.30;;;-1.60;99.90;;;;;;5072464;28;20505;-68
2024/01/21 05:47:21;;;;;;;16.07;8.37;;;-1.50;99.90;;;;;;5074148;28;20228;-68
2024/01/21 05:49:47;;;;;;;14.20;9.27;;;-1.40;99.90;;;;;;5064994;28;20185;-69
2024/01/21 05:52:13;;;;;;;18.03;10.07;;;-1.40;99.90;;;;;;5065005;28;20624;-70
2024/01/21 05:54:39;;;;;;;16.63;10.40;;;-1.50;99.90;;;;;;5076996;28;20185;-68
2024/01/21 05:57:05;;;;;;;14.10;8.33;;;-1.60;99.90;;;;;;5059326;28;20205;-71
2024/01/21 05:59:32;;;;;;;17.37;9.40;;;-1.60;99.90;;;;;;5070199;28;20754;-69
2024/01/21 06:01:58;;;;;;;16.50;8.70;;;-1.60;99.90;;;;;;5065964;28;20639;-70
2024/01/21 06:04:23;;;;;;;18.50;9.77;;;-1.70;99.90;;;;;;5070452;28;20412;-71
2024/01/21 06:06:49;;;;;;;19.47;9.67;;;-1.70;99.90;;;;;;5067989;28;20421;-70
2024/01/21 06:09:15;;;;;;;17.40;9.00;;;-1.70;99.90;;;;;;5068678;28;20405;-68
2024/01/21 06:11:41;;;;;;;18.03;10.10;;;-1.60;99.90;;;;;;5060351;28;20444;-69
2024/01/21 06:14:07;;;;;;;18.87;9.50;;;-1.60;99.90;;;;;;5067323;28;20811;-70
2024/01/21 06:16:33;;;;;;;18.03;10.40;;;-1.60;99.90;;;;;;5073025;28;20455;-69
2024/01/21 06:18:58;;;;;;;15.70;8.00;;;-1.50;99.90;;;;;;5067093;28;20479;-69
2024/01/21 06:21:24;;;;;;;16.80;9.00;;;-1.50;99.90;;;;;;5060329;28;20201;-70
2024/01/21 06:23:50;;;;;;;20.90;9.77;;;-1.50;99.90;;;;;;5050069;28;20422;-69
2024/01/21 06:26:17;;;;;;;16.37;8.53;;;-1.60;99.90;;;;;;5062371;28;20209;-70
2024/01/21 06:28:43;;;;;;;16.80;8.20;;;-1.50;99.90;;;;;;5071483;28;20260;-68
2024/01/21 06:31:09;;;;;;;17.20;9.43;;;-1.50;99.90;;;;;;5065769;28;20491;-68
2024/01/21 06:33:34;;;;;;;18.00;9.47;;;-1.50;99.90;;;;;;5057395;28;20239;-68
2024/01/21 06:36:00;;;;;;;14.60;7.90;;;-1.50;99.90;;;;;;5060534;28;20246;-70
2024/01/21 06:38:26;;;;;;;17.20;9.20;;;-1.40;99.90;;;;;;5067383;28;20452;-69
2024/01/21 06:40:52;;;;;;;14.27;9.20;;;-1.40;99.90;;;;;;5071850;28;20189;-67
2024/01/21 06:43:18;;;;;;;16.63;8.73;;;-1.40;99.80;;;;;;5066992;28;20487;-69
2024/01/21 06:45:44;;;;;;;18.83;9.57;;;-1.30;99.90;;;;;;5069380;28;20447;-68
2024/01/21 06:48:10;;;;;;;15.30;8.90;;;-1.30;99.90;;;;;;5070560;28;20539;-69
2024/01/21 06:50:35;;;;;;;15.77;9.10;;;-1.30;99.90;;;;;;5063412;28;20474;-71
2024/01/21 06:53:01;;;;;;;15.90;8.47;;;-1.30;99.60;;;;;;5071280;28;20216;-67
2024/01/21 06:55:27;;;;;;;15.20;9.50;;;-1.30;99.90;;;;;;5063533;28;20214;-69
2024/01/21 06:57:53;;;;;;;18.03;8.37;;;-1.30;99.50;;;;;;5043882;28;20181;-67
2024/01/21 07:00:19;;;;;;;16.93;9.27;;;-1.30;99.80;;;;;;5070946;28;20714;-69
2024/01/21 07:02:44;;;;;;;12.83;8.50;;;-1.30;99.30;;;;;;5058911;28;20181;-70
2024/01/21 07:05:10;;;;;;;17.30;8.93;;;-1.20;99.30;;;;;;5071741;28;20498;-70
2024/01/21 07:07:36;;;;;;;18.40;9.07;;;-1.30;99.70;;;;;;5064229;28;20188;-68
2024/01/21 07:10:02;;;;;;;16.00;8.33;;;-1.30;99.90;;;;;;5063255;28;20235;-68
2024/01/21 07:12:27;;;;;;;21.13;9.93;;;-1.30;99.90;;;;;;5061863;28;20209;-68
2024/01/21 07:14:53;;;;;;;14.97;9.17;;;-1.20;99.90;;;;;;5063220;28;20609;-68
2024/01/21 07:17:18;;;;;;;14.40;8.40;;;-1.20;99.90;;;;;;5068528;28;20193;-74
2024/01/21 07:19:44;;;;;;;15.13;9.83;;;-1.30;99.90;;;;;;5062611;28;20209;-70
2024/01/21 07:22:10;;;;;;;15.20;8.30;;;-1.20;99.90;;;;;;5062662;28;20278;-68
2024/01/21 07:24:36;;;;;;;17.23;9.07;;;-1.30;99.90;;;;;;5073521;28;20326;-69
2024/01/21 07:27:03;;;;;;;13.37;9.23;;;-1.20;99.90;;;;;;5064847;28;20213;-70
2024/01/21 07:29:28;;;;;;;14.30;8.63;;;-1.10;99.90;;;;;;5059944;28;20199;-69
2024/01/21 07:31:54;;;;;;;16.47;8.73;;;-1.10;99.90;;;;;;5059738;28;20477;-68
2024/01/21 07:34:20;;;;;;;14.93;8.17;;;-1.10;99.90;;;;;;5062844;28;20236;-69
2024/01/21 07:36:45;;;;;;;14.37;9.20;;;-1.00;99.90;;;;;;5075570;28;20224;-70
2024/01/21 07:39:14;;;;;;;14.73;7.40;;;-1.00;99.90;;;;;;5070450;28;20241;-70
2024/01/21 07:41:39;;;;;;;15.90;8.50;;;-1.00;99.90;;;;;;5059713;28;20227;-68
2024/01/21 07:44:05;;;;;;;14.83;9.17;;;-1.00;99.90;;;;;;5042058;28;20424;-71
2024/01/21 07:46:30;;;;;;;13.10;7.60;;;-0.90;99.90;;;;;;5063654;28;20209;-68
2024/01/21 07:48:56;;;;;;;12.97;7.60;;;-0.90;99.90;;;;;;5064537;28;20189;-69
2024/01/21 07:51:22;;;;;;;11.77;7.40;;;-0.90;99.90;;;;;;5039260;28;20201;-69
2024/01/21 07:53:47;;;;;;;12.13;7.60;;;-0.90;99.90;;;;;;5065932;28;20204;-71
2024/01/21 07:56:13;;;;;;;14.23;8.03;;;-0.90;99.90;;;;;;5060146;28;20209;-70
2024/01/21 07:58:39;;;;;;;12.27;7.30;;;-0.80;99.90;;;;;;5065553;28;20239;-70
2024/01/21 08:01:10;;;;;;;13.03;7.60;;;-0.70;99.90;;;;;;5064382;28;20494;-69
2024/01/21 08:03:36;;;;;;;15.80;8.50;;;-0.70;99.90;;;;;;5058650;28;20191;-68
2024/01/21 08:06:02;;;;;;;11.00;7.90;;;-0.60;99.90;;;;;;5063710;28;20498;-72
2024/01/21 08:08:27;;;;;;;14.10;8.73;;;-0.70;99.90;;;;;;5069866;28;20185;-69
2024/01/21 08:10:54;;;;;;;18.57;9.37;;;-0.60;99.90;;;;;;5074062;28;20178;-70
2024/01/21 08:13:20;;;;;;;13.43;8.27;;;-0.60;99.90;;;;;;5067394;28;20189;-70
2024/01/21 08:15:45;;;;;;;12.80;8.13;;;-0.50;99.90;;;;;;5081591;28;20435;-72
2024/01/21 08:18:13;;;;;;;12.40;7.50;;;-0.40;99.90;;;;;;5067763;28;20190;-71
2024/01/21 08:20:38;;;;;;;13.00;8.07;;;-0.40;99.90;;;;;;5045834;28;20222;-70
2024/01/21 08:23:04;;;;;;;11.03;7.67;;;-0.40;99.90;;;;;;5070265;28;20483;-70
2024/01/21 08:25:30;;;;;;;12.87;7.47;;;-0.30;99.90;;;;;;5071762;28;20869;-69
2024/01/21 08:27:55;;;;;;;15.67;9.03;;;-0.30;99.90;;;;;;5066937;28;20729;-66
2024/01/21 08:30:21;;;;;;;14.00;7.73;;;-0.10;99.90;;;;;;5063095;28;20201;-70
2024/01/21 08:32:46;;;;;;;13.50;7.27;;;-0.10;99.90;;;;;;5074113;28;20197;-73
2024/01/21 08:35:13;;;;;;;11.03;7.77;;;0.00;99.90;;;;;;5071815;28;20580;-69
2024/01/21 08:37:38;;;;;;;14.90;8.67;;;0.00;99.90;;;;;;5077740;28;20269;-73
2024/01/21 08:40:05;;;;;;;12.77;7.73;;;0.10;99.90;;;;;;5058411;28;20528;-72
2024/01/21 08:42:30;;;;;;;14.60;8.20;;;0.20;99.90;;;;;;5075796;28;20232;-71
2024/01/21 08:44:57;;;;;;;18.90;8.60;;;0.20;99.90;;;;;;5046125;28;20432;-69
2024/01/21 08:47:22;;;;;;;14.63;8.53;;;0.30;99.40;;;;;;5061901;28;20221;-69
2024/01/21 08:49:48;;;;;;;18.40;9.20;;;0.20;99.90;;;;;;5058394;28;20440;-72
2024/01/21 08:52:14;;;;;;;14.90;8.87;;;0.20;99.90;;;;;;5060895;28;20197;-71
2024/01/21 08:54:39;;;;;;;13.93;7.87;;;0.20;99.90;;;;;;5067528;28;20193;-71
2024/01/21 08:57:05;;;;;;;12.37;8.40;;;0.20;99.90;;;;;;5067416;28;20530;-70
2024/01/21 08:59:32;;;;;;;14.23;8.33;;;0.20;99.10;;;;;;5055700;28;20621;-69
2024/01/21 09:01:58;;;;;;;18.67;9.60;;;0.20;99.90;;;;;;5067833;28;20416;-71
2024/01/21 09:04:24;;;;;;;11.57;8.63;;;0.30;99.90;;;;;;5057771;28;20200;-72
2024/01/21 09:06:49;;;;;;;14.67;8.10;;;0.40;99.90;;;;;;5076632;28;20347;-70
2024/01/21 09:09:15;;;;;;;11.23;8.47;;;0.40;99.40;;;;;;5055447;28;20186;-71
2024/01/21 09:11:40;;;;;;;15.93;9.40;;;0.60;99.30;;;;;;5059735;28;20208;-70
2024/01/21 09:14:07;;;;;;;12.87;7.47;;;0.60;97.90;;;;;;5069514;28;20217;-71
2024/01/21 09:16:33;;;;;;;21.73;9.47;;;0.70;97.80;;;;;;5068294;28;20559;-71
2024/01/21 09:18:58;;;;;;;17.90;10.13;;;0.90;98.00;;;;;;5056683;28;20896;-71
2024/01/21 09:21:24;;;;;;;11.67;8.50;;;0.90;97.10;;;;;;5057327;28;20424;-70
2024/01/21 09:23:50;;;;;;;12.73;7.70;;;1.00;95.20;;;;;;5054794;28;20166;-70
2024/01/21 09:26:16;;;;;;;13.00;8.70;;;1.00;95.40;;;;;;5054304;28;20220;-71
2024/01/21 09:28:43;;;;;;;12.90;8.80;;;1.10;95.40;;;;;;5071181;28;20428;-71
2024/01/21 09:31:09;;;;;;;12.50;7.87;;;1.20;95.30;;;;;;5046208;28;20210;-71
2024/01/21 09:33:36;;;;;;;18.57;9.73;;;1.20;94.50;;;;;;5041725;28;20437;-71
2024/01/21 09:36:04;;;;;;;16.50;8.57;;;1.40;95.80;;;;;;5060062;28;20444;-70
2024/01/21 09:38:29;;;;;;;19.03;8.13;;;1.50;94.70;;;;;;5049842;28;20420;-70
2024/01/21 09:41:33;;;;;;;12.80;8.50;;;1.60;94.70;;;;;;5075458;28;20490;-73
2024/01/21 09:43:59;;;;;;;11.93;7.73;;;1.80;94.10;;;;;;5053854;28;20193;-71
2024/01/21 09:46:25;;;;;;;12.50;8.50;;;1.90;93.50;;;;;;5056916;28;20727;-72
2024/01/21 09:48:53;;;;;;;15.70;9.80;;;2.10;93.50;;;;;;5058254;28;20857;-68
2024/01/21 09:51:20;;;;;;;16.30;9.13;;;2.20;92.50;;;;;;5065185;28;20423;-68
2024/01/21 09:53:47;;;;;;;16.17;9.60;;;2.20;90.60;;;;;;5070507;28;20849;-72
2024/01/21 09:56:14;;;;;;;14.13;10.20;;;2.20;90.80;;;;;;5061542;28;20455;-70
2024/01/21 09:58:50;;;;;;;15.57;10.30;;;2.20;90.90;;;;;;5079913;28;20688;-71
2024/01/21 10:01:17;;;;;;;15.53;10.03;;;2.20;88.70;;;;;;5071199;28;20447;-70
2024/01/21 10:03:46;;;;;;;22.23;12.17;;;2.20;88.40;;;;;;5050149;28;20413;-71
2024/01/21 10:06:12;;;;;;;26.23;12.70;;;2.20;88.20;;;;;;5046189;28;20497;-71
2024/01/21 10:08:42;;;;;;;19.40;10.83;;;2.20;88.30;;;;;;5059135;28;20427;-71
2024/01/21 10:11:08;;;;;;;14.70;9.70;;;2.30;87.30;;;;;;5056163;28;20186;-69
2024/01/21 10:13:38;;;;;;;11.87;8.93;;;2.40;89.60;;;;;;5076729;28;20511;-71
2024/01/21 10:16:07;;;;;;;12.53;8.97;;;2.60;86.30;;;;;;5064721;28;20439;-71
2024/01/21 10:18:34;;;;;;;13.13;9.40;;;2.70;85.20;;;;;;5066244;28;20447;-71
2024/01/21 10:21:04;;;;;;;13.57;9.80;;;2.80;88.60;;;;;;5048435;28;20440;-70
2024/01/21 10:23:30;;;;;;;12.33;6.90;;;2.90;85.00;;;;;;5077443;28;20443;-69
2024/01/21 10:25:55;;;;;;;15.50;8.37;;;3.00;85.20;;;;;;5052288;28;20455;-72
2024/01/21 10:28:22;;;;;;;15.10;8.17;;;3.00;83.20;;;;;;5041004;28;20511;-71
2024/01/21 10:30:48;;;;;;;13.23;8.30;;;3.00;83.00;;;;;;5076583;28;20181;-70
2024/01/21 10:33:14;;;;;;;10.97;7.53;;;3.10;82.30;;;;;;5061592;28;20455;-69
2024/01/21 10:35:43;;;;;;;10.73;8.47;;;3.10;85.00;;;;;;5059498;28;20449;-73
2024/01/21 10:38:12;;;;;;;13.03;8.20;;;3.20;82.80;;;;;;5060298;28;20696;-72
2024/01/21 10:40:44;;;;;;;15.13;9.47;;;3.30;80.80;;;;;;5061482;28;20467;-70
2024/01/21 10:43:14;;;;;;;13.33;8.03;;;3.30;83.40;;;;;;5055809;28;20468;-69
2024/01/21 10:45:44;;;;;;;12.53;7.20;;;3.40;80.80;;;;;;5060573;28;20439;-71
2024/01/21 10:48:11;;;;;;;13.93;9.00;;;3.30;81.30;;;;;;5049431;28;20511;-69
2024/01/21 10:50:40;;;;;;;14.23;9.50;;;3.40;84.90;;;;;;5065087;28;20875;-72
2024/01/21 10:53:08;;;;;;;14.20;9.17;;;3.40;82.80;;;;;;5063180;28;20497;-70
2024/01/21 10:55:36;;;;;;;14.30;9.40;;;3.50;82.50;;;;;;5060391;28;20773;-70
2024/01/21 10:58:02;;;;;;;11.40;7.53;;;3.40;79.30;;;;;;5058921;28;21522;-70
2024/01/21 11:00:28;;;;;;;10.10;8.43;;;3.40;80.80;;;;;;5076022;28;20454;-71
2024/01/21 11:03:25;;;;;;;15.90;9.70;;;3.40;79.50;;;;;;5057853;28;20447;-71
2024/01/21 11:06:03;;;;;;;12.97;8.53;;;3.40;82.40;;;;;;5059205;28;20206;-70
2024/01/21 11:08:29;;;;;;;12.57;7.40;;;3.40;81.40;;;;;;5052729;28;20420;-70
2024/01/21 11:11:21;;;;;;;10.97;7.97;;;3.50;81.50;;;;;;5060960;28;20436;-73
2024/01/21 11:13:51;;;;;;;17.10;9.70;;;3.60;81.50;;;;;;5059696;28;20441;-70
2024/01/21 11:16:25;;;;;;;10.97;7.50;;;3.80;80.30;;;;;;5061685;28;20957;-72
2024/01/21 11:18:58;;;;;;;12.57;8.00;;;3.80;81.60;;;;;;5062148;28;20689;-69
2024/01/21 11:21:25;;;;;;;12.07;8.50;;;3.90;80.10;;;;;;5076792;28;20431;-71
2024/01/21 11:24:05;;;;;;;11.90;7.93;;;4.00;82.50;;;;;;5060312;28;20462;-70
2024/01/21 11:26:34;;;;;;;12.20;9.60;;;4.00;81.30;;;;;;5073806;28;20451;-68
2024/01/21 11:29:02;;;;;;;11.70;8.10;;;4.10;83.70;;;;;;5065368;28;20860;-71
2024/01/21 11:31:32;;;;;;;15.00;10.20;;;4.10;82.60;;;;;;5073156;28;20425;-69
2024/01/21 11:34:11;;;;;;;12.63;8.00;;;4.10;80.30;;;;;;5060483;28;20511;-70
2024/01/21 11:36:40;;;;;;;10.87;7.03;;;4.10;84.10;;;;;;5057351;28;20720;-72
2024/01/21 11:39:07;;;;;;;11.20;7.40;;;4.10;83.30;;;;;;5062727;28;20487;-69
2024/01/21 11:41:38;;;;;;;13.90;8.20;;;4.10;85.00;;;;;;5071848;28;20701;-70
2024/01/21 11:44:15;;;;;;;11.70;7.70;;;4.20;84.30;;;;;;5079063;28;20893;-70
2024/01/21 11:46:44;;;;;;;10.07;7.43;;;4.20;82.50;;;;;;5062493;28;20828;-71
2024/01/21 11:49:11;;;;;;;14.70;8.27;;;4.40;83.90;;;;;;5063767;28;20493;-72
2024/01/21 11:51:40;;;;;;;11.63;7.60;;;4.50;83.40;;;;;;5071594;28;20426;-69
2024/01/21 11:54:07;;;;;;;10.40;7.73;;;4.60;83.70;;;;;;5075255;28;20451;-70
2024/01/21 11:56:36;;;;;;;12.07;7.63;;;4.60;83.40;;;;;;5065523;28;20476;-72
2024/01/21 11:59:03;;;;;;;11.80;8.13;;;4.60;82.90;;;;;;5076824;28;20463;-72
2024/01/21 12:01:30;;;;;;;13.60;8.90;;;4.70;83.60;;;;;;5069198;28;20546;-71
2024/01/21 12:03:56;;;;;;;12.73;8.73;;;4.80;85.30;;;;;;5060124;28;20464;-69
2024/01/21 12:06:24;;;;;;;11.67;8.00;;;4.90;83.10;;;;;;5066168;28;20953;-71
2024/01/21 12:08:50;;;;;;;12.40;7.43;;;4.90;82.80;;;;;;5057323;28;20185;-70
2024/01/21 12:11:16;;;;;;;13.50;8.50;;;5.10;84.50;;;;;;5067672;28;20427;-69
2024/01/21 12:13:43;;;;;;;10.00;7.97;;;5.20;82.70;;;;;;5077087;28;20512;-74
2024/01/21 12:16:10;;;;;;;11.97;7.83;;;5.30;82.80;;;;;;5081018;28;20454;-71
2024/01/21 12:18:39;;;;;;;11.50;7.43;;;5.30;83.40;;;;;;5054675;28;20464;-73
2024/01/21 12:21:06;;;;;;;10.07;6.63;;;5.40;83.10;;;;;;5073490;28;20469;-69
2024/01/21 12:23:32;;;;;;;11.30;7.70;;;5.40;82.90;;;;;;5073742;28;20752;-70
2024/01/21 12:25:57;;;;;;;13.43;7.70;;;5.50;84.30;;;;;;5077528;28;20423;-71
2024/01/21 12:28:23;;;;;;;12.50;8.40;;;5.50;83.20;;;;;;5060376;28;20678;-69
2024/01/21 12:30:50;;;;;;;12.70;7.73;;;5.40;81.70;;;;;;5065195;28;20188;-74
2024/01/21 12:33:15;;;;;;;9.10;6.40;;;5.40;83.20;;;;;;5074421;28;20420;-72